FW0443 Weather Reports


Display with metric or nautical units.
time (UTC)temp
F
wind
direction
speed
MPH
gust
MPH
rain 1hr
in
rain 24hr
in
rain mn
in
humidity
%
barometer
mb
20190216000515 42 160 3.0 6.0 0.00 0.67 0.61 96 995.4
20190216000016 42 145 2.0 6.0 0.00 0.67 0.61 96 995.4
20190215235513 42 141 3.0 6.0 0.00 0.67 0.61 96 995.4
20190215235016 42 166 2.0 6.0 0.00 0.67 0.61 96 995.4
20190215234513 42 131 2.0 5.0 0.00 0.67 0.61 96 995.3
20190215234015 42 161 2.0 4.0 0.00 0.67 0.61 95 995.1
20190215233516 42 177 1.0 2.0 0.00 0.67 0.61 95 995.1
20190215233015 42 196 1.0 4.0 0.00 0.67 0.61 96 995.1
20190215232514 42 184 2.0 4.0 0.00 0.67 0.61 96 995.1
20190215232017 42 150 2.0 3.0 0.00 0.67 0.61 95 995.1
20190215231514 42 177 1.0 2.0 0.00 0.67 0.61 95 995.1
20190215231015 42 187 1.0 2.0 0.00 0.67 0.61 95 994.9
20190215230515 42 193 1.0 2.0 0.00 0.67 0.61 95 994.8
20190215230016 42 203 1.0 2.0 0.00 0.67 0.61 95 994.8
20190215225513 43 292 0.0 1.0 0.00 0.67 0.61 95 994.8
20190215225016 42 160 1.0 2.0 0.00 0.67 0.61 96 994.8
20190215224514 42 131 1.0 2.0 0.02 0.67 0.61 95 994.8
20190215224016 42 155 1.0 2.0 0.02 0.67 0.61 95 994.6
20190215223515 42 180 1.0 3.0 0.02 0.67 0.61 95 994.6
20190215223015 42 157 1.0 2.0 0.03 0.67 0.61 96 994.8
20190215222515 42 142 1.0 2.0 0.03 0.67 0.61 95 994.8
20190215222016 42 176 1.0 2.0 0.03 0.67 0.61 96 994.8
20190215221513 41 225 1.0 1.0 0.03 0.67 0.61 95 994.8
20190215221015 41 211 1.0 2.0 0.03 0.67 0.61 96 994.8
20190215220515 41 270 1.0 2.0 0.03 0.67 0.61 96 994.8
20190215220016 41 292 1.0 2.0 0.03 0.67 0.61 95 994.8
20190215215513 40 260 2.0 3.0 0.03 0.67 0.61 96 994.9
20190215215016 40 192 2.0 4.0 0.03 0.68 0.60 96 995.1
20190215214513 40 260 2.0 5.0 0.01 0.66 0.59 95 995.1
20190215214015 41 228 0.0 2.0 0.02 0.66 0.59 96 995.1
20190215213515 41 157 0.0 1.0 0.02 0.66 0.59 96 995.1
20190215213016 41 135 1.0 2.0 0.02 0.65 0.57 96 995.1
20190215212514 42 135 0.0 1.0 0.03 0.65 0.57 95 995.1
20190215212017 42 106 1.0 3.0 0.03 0.65 0.57 95 995.1
20190215211514 41 80 1.0 2.0 0.03 0.65 0.57 96 995.1
20190215211015 41 134 1.0 2.0 0.03 0.65 0.57 96 995.1
20190215210514 40 315 0.0 0.0 0.03 0.65 0.57 95 995.1
20190215210018 39 305 1.0 1.0 0.03 0.65 0.57 96 995.1
20190215205514 38 292 1.0 2.0 0.03 0.65 0.57 96 995.3
20190215205018 37 270 1.0 2.0 0.03 0.65 0.57 94 995.4
20190215204514 36 292 1.0 2.0 0.03 0.65 0.56 95 995.4
20190215204016 35 292 2.0 5.0 0.02 0.64 0.56 95 995.4
20190215203516 35 295 4.0 7.0 0.02 0.64 0.56 94 995.4
20190215203017 36 302 6.0 9.0 0.01 0.63 0.55 95 995.4
20190215202514 37 301 10.0 16.0 0.00 0.63 0.55 95 995.4
20190215202019 40 288 10.0 20.0 0.00 0.63 0.55 96 995.1
20190215201514 43 268 2.0 5.0 0.00 0.63 0.55 95 994.9
20190215201016 42 259 2.0 6.0 0.02 0.63 0.55 96 994.9
20190215200516 43 271 4.0 8.0 0.05 0.63 0.55 95 994.8
20190215200016 43 264 2.0 4.0 0.07 0.64 0.55 95 994.9
20190215195514 43 258 2.0 5.0 0.07 0.65 0.55 96 995.1
20190215195018 43 224 2.0 6.0 0.07 0.66 0.55 95 995.1
20190215194515 43 221 2.0 7.0 0.07 0.66 0.55 96 995.1
20190215194016 43 239 2.0 7.0 0.07 0.66 0.55 96 995.1
20190215193515 42 198 2.0 5.0 0.07 0.66 0.55 95 994.9
20190215193017 41 201 2.0 4.0 0.07 0.66 0.55 95 994.9
20190215192514 40 259 1.0 3.0 0.07 0.66 0.55 95 995.1
20190215192019 40 292 2.0 3.0 0.07 0.66 0.55 96 994.9
20190215191514 40 291 3.0 6.0 0.07 0.66 0.54 96 994.8
20190215191016 41 285 5.0 9.0 0.05 0.64 0.52 95 994.8
20190215190516 42 273 2.0 5.0 0.02 0.61 0.50 96 994.8
20190215190017 42 202 1.0 3.0 0.00 0.59 0.48 96 994.9
20190215185514 43 203 1.0 3.0 0.00 0.59 0.48 96 995.1
20190215185018 43 250 1.0 2.0 0.00 0.59 0.48 96 995.1
20190215184515 43 257 1.0 3.0 0.00 0.59 0.48 95 995.1
20190215184016 43 237 1.0 2.0 0.00 0.59 0.48 95 995.1
20190215183515 43 205 1.0 4.0 0.00 0.59 0.48 95 994.9
20190215183015 43 259 1.0 3.0 0.00 0.60 0.48 95 994.8
20190215182514 43 223 2.0 4.0 0.00 0.60 0.48 95 994.8
20190215182018 43 240 1.0 4.0 0.00 0.60 0.48 95 994.8
20190215181514 43 277 1.0 3.0 0.00 0.60 0.48 95 994.9
20190215181016 43 222 2.0 6.0 0.00 0.60 0.48 96 994.9
20190215180516 43 237 2.0 6.0 0.00 0.60 0.48 95 994.8
20190215180017 43 257 1.0 3.0 0.00 0.60 0.48 96 994.8
20190215175514 43 218 2.0 6.0 0.00 0.60 0.48 96 994.8
20190215175017 43 264 1.0 4.0 0.00 0.61 0.48 95 994.8
20190215174515 43 228 2.0 6.0 0.00 0.61 0.48 96 994.8
20190215174015 43 203 1.0 4.0 0.00 0.61 0.48 95 994.8
20190215173515 43 191 1.0 4.0 0.00 0.61 0.48 96 994.8
20190215173016 43 255 1.0 4.0 0.00 0.61 0.48 95 994.6
20190215172514 43 218 2.0 5.0 0.00 0.61 0.48 96 994.4
20190215172018 43 251 2.0 4.0 0.01 0.61 0.48 96 994.4
20190215171514 42 214 1.0 3.0 0.01 0.61 0.48 95 994.4
20190215171016 42 267 2.0 4.0 0.01 0.61 0.48 95 994.4
20190215170515 42 219 1.0 3.0 0.01 0.61 0.48 96 994.4
20190215170017 42 190 2.0 5.0 0.01 0.61 0.48 95 994.2
20190215165514 42 192 1.0 3.0 0.01 0.61 0.48 95 994.0
20190215165018 42 170 1.0 3.0 0.01 0.61 0.48 95 994.0
20190215164514 42 195 2.0 4.0 0.01 0.61 0.48 96 994.0
20190215164016 41 217 1.0 3.0 0.01 0.61 0.48 95 994.0
20190215163515 41 244 2.0 6.0 0.01 0.61 0.48 95 994.0
20190215163017 41 210 1.0 3.0 0.01 0.61 0.48 96 994.0
20190215162514 41 210 1.0 3.0 0.01 0.62 0.48 95 994.0
20190215162018 41 210 1.0 3.0 0.00 0.63 0.47 95 994.0
20190215161514 41 236 1.0 4.0 0.00 0.67 0.47 96 994.0
20190215161016 41 215 1.0 2.0 0.00 0.74 0.47 96 994.0
20190215160516 41 233 1.0 2.0 0.00 0.74 0.47 96 994.0
20190215160017 41 220 1.0 3.0 0.00 0.74 0.47 96 994.0
20190215155514 41 180 1.0 2.0 0.00 0.74 0.47 95 994.0
20190215155017 41 265 2.0 3.0 0.00 0.74 0.47 95 994.0
20190215154517 41 236 1.0 2.0 0.00 0.74 0.47 95 993.9
20190215154016 41 193 2.0 6.0 0.00 0.74 0.47 96 993.5
20190215153515 41 166 2.0 5.0 0.00 0.74 0.47 95 993.3
20190215153017 41 171 2.0 5.0 0.00 0.74 0.47 96 993.3
20190215152514 41 186 2.0 6.0 0.00 0.74 0.47 95 993.3
20190215152018 41 181 2.0 5.0 0.00 0.74 0.47 95 993.3
20190215151514 41 224 1.0 5.0 0.00 0.75 0.47 96 993.3
20190215151015 41 173 2.0 6.0 0.00 0.76 0.47 96 993.3
20190215150516 41 182 2.0 4.0 0.00 0.76 0.47 95 993.3
20190215150016 41 207 2.0 6.0 0.00 0.76 0.47 96 993.3
20190215145514 40 219 1.0 5.0 0.00 0.76 0.47 96 993.3
20190215145017 40 268 2.0 5.0 0.00 0.76 0.47 95 993.2
20190215144514 40 201 2.0 6.0 0.00 0.76 0.47 96 993.2
20190215144016 40 198 3.0 7.0 0.00 0.76 0.47 96 993.2
20190215143516 40 171 1.0 3.0 0.00 0.76 0.47 96 993.0
20190215143015 40 204 1.0 2.0 0.00 0.76 0.47 96 993.0
20190215142514 40 251 1.0 4.0 0.00 0.76 0.47 95 993.0
20190215142017 40 196 1.0 4.0 0.00 0.76 0.47 96 993.0
20190215141514 40 208 2.0 4.0 0.00 0.76 0.47 95 992.9
20190215141016 40 192 2.0 6.0 0.00 0.76 0.47 95 992.7
20190215140516 40 196 2.0 5.0 0.00 0.76 0.47 96 992.7
20190215140016 40 187 2.0 4.0 0.00 0.76 0.47 96 992.7
20190215135513 40 250 1.0 4.0 0.00 0.76 0.47 95 992.7
20190215135017 40 263 1.0 3.0 0.00 0.76 0.47 95 992.7
20190215134514 40 204 2.0 4.0 0.01 0.76 0.47 95 992.7
20190215134016 40 256 2.0 5.0 0.01 0.76 0.47 95 992.5
20190215133516 40 264 1.0 4.0 0.01 0.76 0.47 95 992.5
20190215133015 40 242 1.0 4.0 0.01 0.76 0.47 96 992.5
20190215132514 40 225 1.0 3.0 0.01 0.76 0.47 96 992.3
20190215132017 40 231 1.0 3.0 0.02 0.76 0.47 96 992.3
20190215131514 40 267 2.0 3.0 0.02 0.76 0.47 95 992.3
20190215131015 40 254 2.0 4.0 0.02 0.76 0.47 96 992.3
20190215130515 40 261 2.0 4.0 0.02 0.76 0.47 95 992.2
20190215130016 40 269 3.0 5.0 0.02 0.76 0.47 96 992.0
20190215125514 40 259 2.0 5.0 0.03 0.76 0.47 95 992.0
20190215125017 40 256 1.0 3.0 0.04 0.76 0.47 96 992.0
20190215124514 39 253 1.0 2.0 0.03 0.76 0.46 95 992.0
20190215124015 39 270 1.0 2.0 0.03 0.76 0.46 95 992.0
20190215123515 39 263 1.0 3.0 0.05 0.76 0.46 95 991.8
20190215123017 39 235 2.0 4.0 0.06 0.76 0.46 95 991.6
20190215122514 39 259 1.0 4.0 0.08 0.76 0.46 95 991.6
20190215122017 39 238 2.0 5.0 0.08 0.75 0.45 95 991.6
20190215121515 39 229 2.0 5.0 0.10 0.75 0.45 95 991.6
20190215121015 39 207 1.0 3.0 0.12 0.75 0.45 96 991.6
20190215120516 39 255 1.0 3.0 0.14 0.75 0.45 96 991.6
20190215120017 39 224 1.0 4.0 0.15 0.75 0.45 95 991.4
20190215115513 39 249 2.0 5.0 0.17 0.74 0.44 95 991.2
20190215115018 39 247 2.0 5.0 0.19 0.73 0.43 96 991.2
20190215114514 39 220 3.0 8.0 0.21 0.73 0.43 95 991.4
20190215114016 39 221 3.0 8.0 0.26 0.73 0.42 95 991.8
20190215113516 39 210 2.0 6.0 0.26 0.71 0.41 95 991.8
20190215113016 39 216 2.0 7.0 0.25 0.70 0.39 95 991.8
20190215112514 39 213 2.0 7.0 0.24 0.68 0.38 96 992.0
20190215112017 38 257 3.0 7.0 0.23 0.67 0.37 96 992.0
20190215111514 38 253 3.0 7.0 0.21 0.65 0.35 96 992.0
20190215111016 38 223 3.0 9.0 0.20 0.63 0.33 95 992.0
20190215110516 37 255 2.0 4.0 0.18 0.61 0.31 95 992.0
20190215110016 37 276 4.0 8.0 0.17 0.60 0.28 94 992.0
20190215105514 36 258 5.0 8.0 0.14 0.56 0.27 95 992.0
20190215105016 36 266 5.0 9.0 0.12 0.55 0.24 94 992.0
20190215104513 36 250 9.0 18.0 0.10 0.53 0.21 94 992.0
20190215104015 40 281 11.0 22.0 0.05 0.48 0.17 96 991.8
20190215103515 42 280 5.0 11.0 0.04 0.46 0.15 95 991.4
20190215103016 42 181 6.0 16.0 0.04 0.46 0.15 96 991.2
20190215102514 42 193 7.0 18.0 0.05 0.45 0.14 96 991.2
20190215102017 42 187 6.0 14.0 0.06 0.45 0.14 95 991.2
20190215101514 42 180 5.0 12.0 0.07 0.45 0.14 95 991.1
20190215101015 42 171 6.0 16.0 0.08 0.44 0.13 96 991.0
20190215100515 42 194 6.0 16.0 0.10 0.44 0.13 96 991.1
20190215100017 42 208 7.0 16.0 0.10 0.44 0.13 95 990.7
20190215095514 42 179 6.0 15.0 0.11 0.45 0.12 95 990.5
20190215095017 42 182 7.0 18.0 0.10 0.45 0.12 96 990.5
20190215094514 42 175 8.0 16.0 0.11 0.46 0.12 96 990.5
20190215094016 42 193 6.0 15.0 0.11 0.47 0.12 95 990.7
20190215093515 42 213 4.0 10.0 0.10 0.47 0.11 95 990.9
20190215093015 43 218 5.0 11.0 0.10 0.48 0.11 95 990.9
20190215092513 43 265 4.0 9.0 0.08 0.46 0.09 95 990.9
20190215092018 43 251 4.0 10.0 0.07 0.46 0.08 95 990.7
20190215091514 43 258 5.0 12.0 0.07 0.48 0.06 96 990.5
20190215091016 43 237 5.0 9.0 0.05 0.46 0.05 95 990.5
20190215090516 43 249 3.0 8.0 0.03 0.44 0.03 95 990.4
20190215090015 43 272 4.0 7.0 0.03 0.44 0.03 96 990.0
20190215085513 43 244 3.0 7.0 0.02 0.43 0.02 96 989.8
20190215085016 43 246 4.0 11.0 0.02 0.43 0.02 96 989.7
20190215084514 43 237 4.0 11.0 0.01 0.42 0.01 96 989.3
20190215084015 43 191 4.0 9.0 0.01 0.42 0.01 96 989.1
20190215083515 43 188 3.0 8.0 0.02 0.42 0.01 95 989.1
20190215083015 43 180 3.0 7.0 0.02 0.42 0.01 95 989.1
20190215082514 43 182 5.0 10.0 0.02 0.42 0.01 95 989.1
20190215082017 43 194 6.0 13.0 0.02 0.42 0.01 95 989.1
20190215081514 43 155 5.0 10.0 0.01 0.41 0.00 95 989.1
20190215081016 44 152 6.0 13.0 0.01 0.42 0.00 95 989.1
20190215080515 44 181 6.0 12.0 0.01 0.42 0.00 95 989.1
20190215075514 44 161 4.0 11.0 0.01 0.44 0.42 95 989.3
20190215075017 44 171 5.0 11.0 0.01 0.47 0.42 96 989.1
20190215074519 44 165 4.0 11.0 0.01 0.51 0.42 95 989.1
20190215074016 44 166 6.0 13.0 0.01 0.55 0.42 95 989.1
20190215073515 44 149 5.0 12.0 0.00 0.57 0.41 95 989.1
20190215073016 44 176 5.0 10.0 0.00 0.60 0.41 94 989.1
20190215072514 44 179 5.0 11.0 0.00 0.62 0.41 93 989.0
20190215072017 44 156 5.0 11.0 0.00 0.63 0.41 94 988.9
20190215071514 44 166 5.0 10.0 0.00 0.65 0.41 94 989.1
20190215071016 44 162 5.0 10.0 0.00 0.66 0.41 93 989.1
20190215070516 44 155 5.0 12.0 0.00 0.67 0.41 94 989.3
20190215070014 44 145 5.0 11.0 0.00 0.67 0.41 95 989.5
20190215065514 44 167 4.0 8.0 0.00 0.68 0.41 94 989.5
20190215064514 44 132 5.0 9.0 0.00 0.68 0.41 94 989.8
20190215064015 44 175 4.0 8.0 0.00 0.68 0.41 95 989.7
20190215063515 44 139 5.0 11.0 0.00 0.68 0.41 95 989.5
20190215063015 44 166 4.0 9.0 0.00 0.69 0.41 95 989.5
20190215062514 44 155 4.0 9.0 0.00 0.70 0.41 96 989.3
20190215062017 44 144 5.0 12.0 0.00 0.72 0.41 95 989.3
20190215061514 44 178 5.0 9.0 0.00 0.72 0.41 95 989.5
20190215061015 44 189 4.0 10.0 0.00 0.72 0.41 95 989.5
20190215060515 44 179 4.0 9.0 0.00 0.73 0.41 96 989.5
20190215060016 44 180 4.0 8.0 0.00 0.74 0.41 95 989.3
20190215055514 44 171 5.0 11.0 0.00 0.75 0.41 95 989.1
20190215055017 43 168 5.0 10.0 0.00 0.76 0.41 96 989.1
20190215054514 43 145 4.0 9.0 0.00 0.77 0.41 96 989.1
20190215054015 43 166 4.0 9.0 0.00 0.78 0.41 96 989.1
20190215053516 43 164 3.0 6.0 0.00 0.78 0.41 96 989.1
20190215053016 43 171 4.0 6.0 0.00 0.80 0.41 96 989.1
20190215052514 43 168 4.0 7.0 0.00 0.81 0.41 96 989.1
20190215052018 43 165 3.0 5.0 0.00 0.83 0.41 96 989.1
20190215051515 43 176 4.0 7.0 0.00 0.84 0.41 96 989.0
20190215051016 43 146 4.0 7.0 0.00 0.84 0.41 96 988.8
20190215050526 43 133 3.0 6.0 0.00 0.84 0.41 95 988.9
20190215050013 43 139 3.0 7.0 0.00 0.84 0.41 96 989.0
20190215045514 43 127 3.0 5.0 0.00 0.84 0.41 95 988.8
20190215045018 44 148 3.0 7.0 0.00 0.84 0.41 96 988.8
20190215044514 44 168 2.0 5.0 0.00 0.84 0.41 96 988.8
20190215044016 44 170 2.0 5.0 0.00 0.84 0.41 95 988.8
20190215043516 44 180 1.0 4.0 0.00 0.84 0.41 95 988.8
20190215043017 44 190 2.0 5.0 0.00 0.84 0.41 95 988.8
20190215042514 44 178 1.0 4.0 0.00 0.84 0.41 95 988.6
20190215042017 44 245 2.0 5.0 0.00 0.84 0.41 96 988.4
20190215041514 44 238 2.0 5.0 0.00 0.84 0.41 96 988.4
20190215041016 44 250 2.0 6.0 0.00 0.84 0.41 95 988.4
20190215040516 44 212 3.0 9.0 0.00 0.84 0.41 96 988.4
20190215040016 44 251 3.0 7.0 0.00 0.84 0.41 95 988.4
20190215035514 44 221 3.0 9.0 0.00 0.84 0.41 95 988.3
20190215035019 44 246 2.0 7.0 0.00 0.84 0.41 96 988.1
20190215034514 44 224 2.0 5.0 0.00 0.84 0.41 95 988.1
20190215034015 44 270 2.0 5.0 0.00 0.84 0.41 96 988.1
20190215033516 44 265 1.0 4.0 0.00 0.84 0.41 96 988.1
20190215033017 44 252 2.0 3.0 0.00 0.84 0.41 95 988.1
20190215032515 44 237 2.0 5.0 0.00 0.84 0.41 96 988.0
20190215032018 44 262 2.0 5.0 0.00 0.84 0.41 96 987.7
20190215031514 44 263 2.0 4.0 0.00 0.84 0.41 96 987.6
20190215031016 44 265 2.0 4.0 0.00 0.84 0.41 96 987.4
20190215030515 44 260 3.0 7.0 0.00 0.84 0.41 96 987.4
20190215030018 45 261 2.0 5.0 0.00 0.84 0.41 96 987.2
20190215025513 45 264 2.0 5.0 0.00 0.84 0.41 97 987.0
20190215025018 45 246 2.0 4.0 0.02 0.84 0.41 96 986.9
20190215024513 45 265 1.0 2.0 0.04 0.84 0.41 97 986.5
20190215024015 45 250 1.0 2.0 0.05 0.84 0.41 96 986.3
20190215023515 45 243 2.0 6.0 0.05 0.84 0.41 96 986.3
20190215023017 45 270 2.0 4.0 0.05 0.84 0.41 96 986.3
20190215022514 45 262 4.0 8.0 0.05 0.84 0.41 97 986.3
20190215022017 46 270 2.0 6.0 0.05 0.84 0.41 96 986.3
20190215021514 46 241 3.0 6.0 0.05 0.84 0.41 97 986.2
20190215021015 46 260 3.0 6.0 0.05 0.84 0.41 96 985.8
20190215020515 46 213 3.0 10.0 0.05 0.84 0.41 97 985.6
20190215020016 46 213 1.0 5.0 0.05 0.84 0.41 97 985.6
20190215015017 46 219 1.0 3.0 0.03 0.82 0.38 96 985.6
20190215014514 46 233 2.0 4.0 0.01 0.80 0.36 97 985.6
20190215014015 46 209 2.0 5.0 0.00 0.79 0.36 97 985.6
20190215013515 46 216 2.0 7.0 0.00 0.79 0.36 96 985.5
20190215013017 46 194 3.0 9.0 0.00 0.79 0.36 97 985.2
20190215012513 46 185 4.0 9.0 0.00 0.79 0.36 97 985.2
20190215012017 46 183 2.0 6.0 0.00 0.79 0.36 96 985.2
20190215011515 46 265 1.0 2.0 0.00 0.79 0.36 97 985.2
20190215011015 47 270 1.0 2.0 0.00 0.79 0.36 97 985.1
20190215010515 47 220 2.0 6.0 0.00 0.79 0.36 97 984.9
20190215010018 47 166 4.0 9.0 0.00 0.79 0.36 97 984.9
20190215005514 47 163 3.0 7.0 0.00 0.79 0.36 96 984.9
20190215005018 47 196 1.0 3.0 0.00 0.79 0.36 97 984.9
20190215004514 47 248 2.0 6.0 0.00 0.79 0.36 97 984.8
20190215004016 46 244 3.0 8.0 0.00 0.79 0.36 97 984.4
20190215003516 46 131 2.0 6.0 0.00 0.79 0.36 96 984.2
20190215003017 46 130 3.0 5.0 0.00 0.79 0.36 97 984.2
20190215002514 46 160 3.0 6.0 0.00 0.79 0.36 97 984.2
20190215002017 46 139 3.0 5.0 0.00 0.79 0.36 97 984.2
20190215001514 46 163 2.0 5.0 0.00 0.79 0.36 96 984.2
20190215001016 46 156 2.0 5.0 0.00 0.79 0.36 97 984.2